sensor_id;sensor_type;location;lat;lon;timestamp;pressure;altitude;pressure_sealevel;temperature;humidity
69058;BME280;56128;37.534;-122.308;2023-04-15T00:01:31;101408.34;;;13.13;100.00
69058;BME280;56128;37.534;-122.308;2023-04-15T00:03:59;101412.88;;;13.13;100.00
69058;BME280;56128;37.534;-122.308;2023-04-15T00:06:25;101409.84;;;13.18;100.00
69058;BME280;56128;37.534;-122.308;2023-04-15T00:08:52;101408.13;;;13.17;100.00
69058;BME280;56128;37.534;-122.308;2023-04-15T00:11:19;101414.59;;;13.14;100.00
69058;BME280;56128;37.534;-122.308;2023-04-15T00:13:45;101404.94;;;13.11;100.00
69058;BME280;56128;37.534;-122.308;2023-04-15T00:16:11;101411.16;;;13.12;100.00
69058;BME280;56128;37.534;-122.308;2023-04-15T00:18:37;101408.09;;;13.05;100.00
69058;BME280;56128;37.534;-122.308;2023-04-15T00:21:04;101407.69;;;12.98;100.00
69058;BME280;56128;37.534;-122.308;2023-04-15T00:23:30;101405.38;;;12.94;100.00
69058;BME280;56128;37.534;-122.308;2023-04-15T00:25:57;101405.88;;;12.99;100.00
69058;BME280;56128;37.534;-122.308;2023-04-15T00:28:23;101400.22;;;12.91;100.00
69058;BME280;56128;37.534;-122.308;2023-04-15T00:30:49;101407.28;;;12.80;100.00
69058;BME280;56128;37.534;-122.308;2023-04-15T00:33:15;101399.94;;;12.71;100.00
69058;BME280;56128;37.534;-122.308;2023-04-15T00:35:42;101398.41;;;12.67;100.00
69058;BME280;56128;37.534;-122.308;2023-04-15T00:38:08;101410.50;;;12.61;100.00
69058;BME280;56128;37.534;-122.308;2023-04-15T00:40:35;101405.47;;;12.57;100.00
69058;BME280;56128;37.534;-122.308;2023-04-15T00:43:01;101403.00;;;12.54;100.00
69058;BME280;56128;37.534;-122.308;2023-04-15T00:45:28;101397.22;;;12.47;100.00
69058;BME280;56128;37.534;-122.308;2023-04-15T00:47:55;101406.16;;;12.47;100.00
69058;BME280;56128;37.534;-122.308;2023-04-15T00:50:21;101404.75;;;12.42;100.00
69058;BME280;56128;37.534;-122.308;2023-04-15T00:52:47;101410.25;;;12.40;100.00
69058;BME280;56128;37.534;-122.308;2023-04-15T00:55:14;101409.22;;;12.30;100.00
69058;BME280;56128;37.534;-122.308;2023-04-15T00:57:40;101409.66;;;12.24;100.00
69058;BME280;56128;37.534;-122.308;2023-04-15T01:00:07;101420.59;;;12.21;100.00
69058;BME280;56128;37.534;-122.308;2023-04-15T01:02:35;101410.25;;;12.16;100.00
69058;BME280;56128;37.534;-122.308;2023-04-15T01:05:02;101409.69;;;12.11;100.00
69058;BME280;56128;37.534;-122.308;2023-04-15T01:07:31;101408.09;;;12.08;100.00
69058;BME280;56128;37.534;-122.308;2023-04-15T01:09:57;101404.75;;;11.92;100.00
69058;BME280;56128;37.534;-122.308;2023-04-15T01:12:25;101411.00;;;11.92;100.00
69058;BME280;56128;37.534;-122.308;2023-04-15T01:14:53;101410.78;;;11.82;100.00
69058;BME280;56128;37.534;-122.308;2023-04-15T01:17:20;101407.59;;;11.77;100.00
69058;BME280;56128;37.534;-122.308;2023-04-15T01:19:47;101414.88;;;11.75;100.00
69058;BME280;56128;37.534;-122.308;2023-04-15T01:22:13;101411.88;;;11.67;100.00
69058;BME280;56128;37.534;-122.308;2023-04-15T01:24:40;101406.41;;;11.56;100.00
69058;BME280;56128;37.534;-122.308;2023-04-15T01:27:09;101419.19;;;11.52;100.00
69058;BME280;56128;37.534;-122.308;2023-04-15T01:29:37;101424.09;;;11.45;100.00
69058;BME280;56128;37.534;-122.308;2023-04-15T01:32:04;101431.59;;;11.40;100.00
69058;BME280;56128;37.534;-122.308;2023-04-15T01:34:30;101428.38;;;11.35;100.00
69058;BME280;56128;37.534;-122.308;2023-04-15T01:36:56;101430.09;;;11.23;100.00
69058;BME280;56128;37.534;-122.308;2023-04-15T01:39:23;101430.72;;;11.14;100.00
69058;BME280;56128;37.534;-122.308;2023-04-15T01:44:33;101437.97;;;10.99;100.00
69058;BME280;56128;37.534;-122.308;2023-04-15T01:47:00;101438.19;;;10.96;100.00
69058;BME280;56128;37.534;-122.308;2023-04-15T01:49:26;101449.31;;;10.90;100.00
69058;BME280;56128;37.534;-122.308;2023-04-15T01:51:53;101446.66;;;10.75;100.00
69058;BME280;56128;37.534;-122.308;2023-04-15T01:54:19;101447.84;;;10.71;100.00
69058;BME280;56128;37.534;-122.308;2023-04-15T01:56:46;101447.47;;;10.63;100.00
69058;BME280;56128;37.534;-122.308;2023-04-15T01:59:12;101452.09;;;10.61;100.00
69058;BME280;56128;37.534;-122.308;2023-04-15T02:01:38;101460.63;;;10.53;100.00
69058;BME280;56128;37.534;-122.308;2023-04-15T02:04:05;101460.91;;;10.48;100.00
69058;BME280;56128;37.534;-122.308;2023-04-15T02:06:32;101459.78;;;10.38;100.00
69058;BME280;56128;37.534;-122.308;2023-04-15T02:08:58;101464.94;;;10.27;100.00
69058;BME280;56128;37.534;-122.308;2023-04-15T02:11:25;101460.53;;;10.26;100.00
69058;BME280;56128;37.534;-122.308;2023-04-15T02:13:51;101466.47;;;10.16;100.00
69058;BME280;56128;37.534;-122.308;2023-04-15T02:16:18;101467.72;;;10.11;100.00
69058;BME280;56128;37.534;-122.308;2023-04-15T02:18:45;101474.28;;;10.05;100.00
69058;BME280;56128;37.534;-122.308;2023-04-15T02:21:12;101480.91;;;9.99;100.00
69058;BME280;56128;37.534;-122.308;2023-04-15T02:23:38;101490.16;;;9.94;100.00
69058;BME280;56128;37.534;-122.308;2023-04-15T02:26:05;101495.97;;;9.86;100.00
69058;BME280;56128;37.534;-122.308;2023-04-15T02:28:32;101497.50;;;9.75;100.00
69058;BME280;56128;37.534;-122.308;2023-04-15T02:30:58;101503.91;;;9.73;100.00
69058;BME280;56128;37.534;-122.308;2023-04-15T02:33:26;101507.31;;;9.61;100.00
69058;BME280;56128;37.534;-122.308;2023-04-15T02:35:52;101514.53;;;9.58;100.00
69058;BME280;56128;37.534;-122.308;2023-04-15T02:38:18;101514.75;;;9.55;100.00
69058;BME280;56128;37.534;-122.308;2023-04-15T02:40:45;101519.66;;;9.47;100.00
69058;BME280;56128;37.534;-122.308;2023-04-15T02:43:11;101512.38;;;9.35;100.00
69058;BME280;56128;37.534;-122.308;2023-04-15T02:45:37;101512.56;;;9.32;100.00
69058;BME280;56128;37.534;-122.308;2023-04-15T02:48:03;101522.56;;;9.28;100.00
69058;BME280;56128;37.534;-122.308;2023-04-15T02:50:31;101529.31;;;9.19;100.00
69058;BME280;56128;37.534;-122.308;2023-04-15T02:52:57;101532.53;;;9.10;100.00
69058;BME280;56128;37.534;-122.308;2023-04-15T02:55:23;101535.56;;;9.04;100.00
69058;BME280;56128;37.534;-122.308;2023-04-15T02:57:49;101549.84;;;9.03;100.00
69058;BME280;56128;37.534;-122.308;2023-04-15T03:00:16;101546.69;;;8.96;100.00
69058;BME280;56128;37.534;-122.308;2023-04-15T03:02:43;101547.88;;;8.90;100.00
69058;BME280;56128;37.534;-122.308;2023-04-15T03:05:13;101554.34;;;8.86;100.00
69058;BME280;56128;37.534;-122.308;2023-04-15T03:07:39;101552.84;;;8.81;100.00
69058;BME280;56128;37.534;-122.308;2023-04-15T03:10:06;101545.28;;;8.73;100.00
69058;BME280;56128;37.534;-122.308;2023-04-15T03:12:33;101560.34;;;8.74;100.00
69058;BME280;56128;37.534;-122.308;2023-04-15T03:14:59;101561.38;;;8.71;100.00
69058;BME280;56128;37.534;-122.308;2023-04-15T03:17:26;101575.25;;;8.62;100.00
69058;BME280;56128;37.534;-122.308;2023-04-15T03:19:53;101582.56;;;8.58;100.00
69058;BME280;56128;37.534;-122.308;2023-04-15T03:22:19;101569.72;;;8.49;100.00
69058;BME280;56128;37.534;-122.308;2023-04-15T03:24:45;101588.22;;;8.52;100.00
69058;BME280;56128;37.534;-122.308;2023-04-15T03:27:11;101595.44;;;8.50;100.00
69058;BME280;56128;37.534;-122.308;2023-04-15T03:29:38;101600.38;;;8.40;100.00
69058;BME280;56128;37.534;-122.308;2023-04-15T03:32:05;101598.91;;;8.35;100.00
69058;BME280;56128;37.534;-122.308;2023-04-15T03:34:31;101605.31;;;8.31;100.00
69058;BME280;56128;37.534;-122.308;2023-04-15T03:36:57;101606.44;;;8.26;100.00
69058;BME280;56128;37.534;-122.308;2023-04-15T03:39:23;101614.53;;;8.25;100.00
69058;BME280;56128;37.534;-122.308;2023-04-15T03:41:50;101612.56;;;8.28;100.00
69058;BME280;56128;37.534;-122.308;2023-04-15T03:44:16;101623.22;;;8.28;100.00
69058;BME280;56128;37.534;-122.308;2023-04-15T03:46:45;101614.28;;;8.29;100.00
69058;BME280;56128;37.534;-122.308;2023-04-15T03:49:13;101627.44;;;8.33;100.00
69058;BME280;56128;37.534;-122.308;2023-04-15T03:51:39;101630.97;;;8.33;100.00
69058;BME280;56128;37.534;-122.308;2023-04-15T03:54:05;101646.97;;;8.33;100.00
69058;BME280;56128;37.534;-122.308;2023-04-15T03:56:32;101646.97;;;8.33;100.00
69058;BME280;56128;37.534;-122.308;2023-04-15T03:58:58;101657.72;;;8.32;100.00
69058;BME280;56128;37.534;-122.308;2023-04-15T04:01:24;101661.28;;;8.32;100.00
69058;BME280;56128;37.534;-122.308;2023-04-15T04:03:50;101658.84;;;8.27;100.00
69058;BME280;56128;37.534;-122.308;2023-04-15T04:06:17;101658.31;;;8.21;100.00
69058;BME280;56128;37.534;-122.308;2023-04-15T04:08:43;101671.53;;;8.22;100.00
69058;BME280;56128;37.534;-122.308;2023-04-15T04:11:09;101673.34;;;8.22;100.00
69058;BME280;56128;37.534;-122.308;2023-04-15T04:13:35;101671.00;;;8.16;100.00
69058;BME280;56128;37.534;-122.308;2023-04-15T04:16:02;101677.34;;;8.13;100.00
69058;BME280;56128;37.534;-122.308;2023-04-15T04:18:32;101675.31;;;8.18;100.00
69058;BME280;56128;37.534;-122.308;2023-04-15T04:20:58;101678.03;;;8.17;100.00
69058;BME280;56128;37.534;-122.308;2023-04-15T04:23:25;101685.09;;;8.18;100.00
69058;BME280;56128;37.534;-122.308;2023-04-15T04:25:51;101688.69;;;8.17;100.00
69058;BME280;56128;37.534;-122.308;2023-04-15T04:28:18;101688.97;;;8.12;100.00
69058;BME280;56128;37.534;-122.308;2023-04-15T04:30:44;101697.09;;;8.09;100.00
69058;BME280;56128;37.534;-122.308;2023-04-15T04:33:11;101698.22;;;8.05;100.00
69058;BME280;56128;37.534;-122.308;2023-04-15T04:35:37;101703.69;;;8.02;100.00
69058;BME280;56128;37.534;-122.308;2023-04-15T04:38:03;101710.66;;;8.04;100.00
69058;BME280;56128;37.534;-122.308;2023-04-15T04:40:30;101704.69;;;7.99;100.00
69058;BME280;56128;37.534;-122.308;2023-04-15T04:42:56;101704.78;;;7.97;100.00
69058;BME280;56128;37.534;-122.308;2023-04-15T04:45:22;101713.72;;;7.96;100.00
69058;BME280;56128;37.534;-122.308;2023-04-15T04:47:48;101720.69;;;7.99;100.00
69058;BME280;56128;37.534;-122.308;2023-04-15T04:50:15;101731.44;;;7.97;100.00
69058;BME280;56128;37.534;-122.308;2023-04-15T04:52:41;101730.78;;;7.92;100.00
69058;BME280;56128;37.534;-122.308;2023-04-15T04:55:08;101729.88;;;7.93;100.00
69058;BME280;56128;37.534;-122.308;2023-04-15T04:57:34;101734.00;;;7.99;100.00
69058;BME280;56128;37.534;-122.308;2023-04-15T05:00:05;101735.75;;;8.00;100.00
69058;BME280;56128;37.534;-122.308;2023-04-15T05:02:33;101738.31;;;8.02;100.00
69058;BME280;56128;37.534;-122.308;2023-04-15T05:05:00;101736.31;;;8.07;100.00
69058;BME280;56128;37.534;-122.308;2023-04-15T05:07:26;101723.22;;;8.02;100.00
69058;BME280;56128;37.534;-122.308;2023-04-15T05:09:53;101736.88;;;8.13;100.00
69058;BME280;56128;37.534;-122.308;2023-04-15T05:12:19;101742.28;;;8.12;100.00
69058;BME280;56128;37.534;-122.308;2023-04-15T05:14:45;101740.78;;;8.06;100.00
69058;BME280;56128;37.534;-122.308;2023-04-15T05:17:12;101734.81;;;8.01;100.00
69058;BME280;56128;37.534;-122.308;2023-04-15T05:19:38;101748.97;;;8.02;100.00
69058;BME280;56128;37.534;-122.308;2023-04-15T05:22:05;101743.03;;;7.96;100.00
69058;BME280;56128;37.534;-122.308;2023-04-15T05:24:31;101741.06;;;8.00;100.00
69058;BME280;56128;37.534;-122.308;2023-04-15T05:26:57;101747.19;;;8.02;100.00
69058;BME280;56128;37.534;-122.308;2023-04-15T05:29:24;101745.47;;;8.01;100.00
69058;BME280;56128;37.534;-122.308;2023-04-15T05:31:50;101741.16;;;7.99;100.00
69058;BME280;56128;37.534;-122.308;2023-04-15T05:34:16;101745.78;;;7.95;100.00
69058;BME280;56128;37.534;-122.308;2023-04-15T05:36:42;101747.81;;;7.90;100.00
69058;BME280;56128;37.534;-122.308;2023-04-15T05:39:09;101747.94;;;7.87;100.00
69058;BME280;56128;37.534;-122.308;2023-04-15T05:41:35;101749.91;;;7.83;100.00
69058;BME280;56128;37.534;-122.308;2023-04-15T05:44:01;101750.06;;;7.80;100.00
69058;BME280;56128;37.534;-122.308;2023-04-15T05:46:27;101748.69;;;7.71;100.00
69058;BME280;56128;37.534;-122.308;2023-04-15T05:48:53;101758.00;;;7.62;100.00
69058;BME280;56128;37.534;-122.308;2023-04-15T05:51:20;101762.59;;;7.59;100.00
69058;BME280;56128;37.534;-122.308;2023-04-15T05:53:46;101755.91;;;7.50;100.00
69058;BME280;56128;37.534;-122.308;2023-04-15T05:56:12;101753.50;;;7.45;100.00
69058;BME280;56128;37.534;-122.308;2023-04-15T05:58:38;101755.47;;;7.40;100.00
69058;BME280;56128;37.534;-122.308;2023-04-15T06:01:05;101761.97;;;7.35;100.00
69058;BME280;56128;37.534;-122.308;2023-04-15T06:03:31;101766.66;;;7.29;100.00
69058;BME280;56128;37.534;-122.308;2023-04-15T06:05:58;101766.13;;;7.21;100.00
69058;BME280;56128;37.534;-122.308;2023-04-15T06:08:25;101757.56;;;7.14;100.00
69058;BME280;56128;37.534;-122.308;2023-04-15T06:10:52;101771.88;;;7.12;100.00
69058;BME280;56128;37.534;-122.308;2023-04-15T06:13:18;101767.75;;;7.05;100.00
69058;BME280;56128;37.534;-122.308;2023-04-15T06:15:45;101765.47;;;6.97;100.00
69058;BME280;56128;37.534;-122.308;2023-04-15T06:18:11;101760.25;;;6.94;100.00
69058;BME280;56128;37.534;-122.308;2023-04-15T06:20:37;101763.16;;;6.89;100.00
69058;BME280;56128;37.534;-122.308;2023-04-15T06:23:04;101766.84;;;6.85;100.00
69058;BME280;56128;37.534;-122.308;2023-04-15T06:25:30;101758.22;;;6.80;100.00
69058;BME280;56128;37.534;-122.308;2023-04-15T06:27:56;101768.13;;;6.76;100.00
69058;BME280;56128;37.534;-122.308;2023-04-15T06:30:23;101774.19;;;6.80;100.00
69058;BME280;56128;37.534;-122.308;2023-04-15T06:32:49;101775.63;;;6.87;100.00
69058;BME280;56128;37.534;-122.308;2023-04-15T06:35:15;101782.44;;;6.94;100.00
69058;BME280;56128;37.534;-122.308;2023-04-15T06:37:41;101776.94;;;6.97;100.00
69058;BME280;56128;37.534;-122.308;2023-04-15T06:40:08;101779.44;;;7.21;100.00
69058;BME280;56128;37.534;-122.308;2023-04-15T06:42:34;101787.34;;;7.23;100.00
69058;BME280;56128;37.534;-122.308;2023-04-15T06:45:03;101770.25;;;7.28;100.00
69058;BME280;56128;37.534;-122.308;2023-04-15T06:47:29;101776.84;;;7.39;100.00
69058;BME280;56128;37.534;-122.308;2023-04-15T06:49:56;101781.13;;;7.43;100.00
69058;BME280;56128;37.534;-122.308;2023-04-15T06:52:22;101777.50;;;7.44;100.00
69058;BME280;56128;37.534;-122.308;2023-04-15T06:54:48;101785.56;;;7.42;100.00
69058;BME280;56128;37.534;-122.308;2023-04-15T06:57:14;101780.16;;;7.44;100.00
69058;BME280;56128;37.534;-122.308;2023-04-15T06:59:41;101777.47;;;7.45;100.00
69058;BME280;56128;37.534;-122.308;2023-04-15T07:02:11;101789.53;;;7.53;100.00
69058;BME280;56128;37.534;-122.308;2023-04-15T07:04:38;101794.44;;;7.62;100.00
69058;BME280;56128;37.534;-122.308;2023-04-15T07:07:05;101782.97;;;7.60;100.00
69058;BME280;56128;37.534;-122.308;2023-04-15T07:09:32;101787.09;;;7.67;100.00
69058;BME280;56128;37.534;-122.308;2023-04-15T07:11:59;101786.88;;;7.72;100.00
69058;BME280;56128;37.534;-122.308;2023-04-15T07:14:25;101783.31;;;7.71;100.00
69058;BME280;56128;37.534;-122.308;2023-04-15T07:16:52;101791.97;;;7.76;100.00
69058;BME280;56128;37.534;-122.308;2023-04-15T07:19:18;101789.09;;;7.81;100.00
69058;BME280;56128;37.534;-122.308;2023-04-15T07:21:45;101798.66;;;7.85;100.00
69058;BME280;56128;37.534;-122.308;2023-04-15T07:24:12;101791.38;;;7.89;100.00
69058;BME280;56128;37.534;-122.308;2023-04-15T07:26:43;101785.91;;;7.92;100.00
69058;BME280;56128;37.534;-122.308;2023-04-15T07:29:09;101789.44;;;7.92;100.00
69058;BME280;56128;37.534;-122.308;2023-04-15T07:31:36;101796.28;;;7.98;100.00
69058;BME280;56128;37.534;-122.308;2023-04-15T07:34:02;101801.44;;;8.01;100.00
69058;BME280;56128;37.534;-122.308;2023-04-15T07:36:29;101796.81;;;8.05;100.00
69058;BME280;56128;37.534;-122.308;2023-04-15T07:38:56;101791.50;;;8.05;100.00
69058;BME280;56128;37.534;-122.308;2023-04-15T07:41:22;101796.66;;;8.08;100.00
69058;BME280;56128;37.534;-122.308;2023-04-15T07:43:48;101792.13;;;8.10;100.00
69058;BME280;56128;37.534;-122.308;2023-04-15T07:46:15;101795.50;;;8.13;100.00
69058;BME280;56128;37.534;-122.308;2023-04-15T07:48:41;101806.00;;;8.17;100.00
69058;BME280;56128;37.534;-122.308;2023-04-15T07:51:07;101796.38;;;8.14;100.00
69058;BME280;56128;37.534;-122.308;2023-04-15T07:53:35;101800.69;;;8.17;100.00
69058;BME280;56128;37.534;-122.308;2023-04-15T07:56:02;101804.16;;;8.19;100.00
69058;BME280;56128;37.534;-122.308;2023-04-15T07:58:28;101790.09;;;8.15;100.00
69058;BME280;56128;37.534;-122.308;2023-04-15T08:00:54;101802.28;;;8.21;100.00
69058;BME280;56128;37.534;-122.308;2023-04-15T08:03:21;101803.97;;;8.22;100.00
69058;BME280;56128;37.534;-122.308;2023-04-15T08:05:48;101794.03;;;8.25;100.00
69058;BME280;56128;37.534;-122.308;2023-04-15T08:08:14;101801.97;;;8.27;100.00
69058;BME280;56128;37.534;-122.308;2023-04-15T08:10:41;101800.25;;;8.26;100.00
69058;BME280;56128;37.534;-122.308;2023-04-15T08:13:07;101801.88;;;8.28;100.00
69058;BME280;56128;37.534;-122.308;2023-04-15T08:15:33;101801.19;;;8.25;100.00
69058;BME280;56128;37.534;-122.308;2023-04-15T08:18:00;101806.19;;;8.31;100.00
69058;BME280;56128;37.534;-122.308;2023-04-15T08:20:26;101806.28;;;8.29;100.00
69058;BME280;56128;37.534;-122.308;2023-04-15T08:22:53;101806.13;;;8.33;100.00
69058;BME280;56128;37.534;-122.308;2023-04-15T08:25:19;101804.25;;;8.35;100.00
69058;BME280;56128;37.534;-122.308;2023-04-15T08:27:46;101812.31;;;8.33;100.00
69058;BME280;56128;37.534;-122.308;2023-04-15T08:30:12;101809.63;;;8.33;100.00
69058;BME280;56128;37.534;-122.308;2023-04-15T08:32:41;101801.72;;;8.32;100.00
69058;BME280;56128;37.534;-122.308;2023-04-15T08:35:07;101803.31;;;8.36;100.00
69058;BME280;56128;37.534;-122.308;2023-04-15T08:37:34;101791.94;;;8.32;100.00
69058;BME280;56128;37.534;-122.308;2023-04-15T08:40:00;101810.44;;;8.35;100.00
69058;BME280;56128;37.534;-122.308;2023-04-15T08:42:31;101803.31;;;8.36;100.00
69058;BME280;56128;37.534;-122.308;2023-04-15T08:44:59;101805.00;;;8.37;100.00
69058;BME280;56128;37.534;-122.308;2023-04-15T08:47:30;101804.25;;;8.35;100.00
69058;BME280;56128;37.534;-122.308;2023-04-15T08:49:59;101804.09;;;8.38;100.00
69058;BME280;56128;37.534;-122.308;2023-04-15T08:52:30;101808.66;;;8.36;100.00
69058;BME280;56128;37.534;-122.308;2023-04-15T08:54:57;101809.41;;;8.38;100.00
69058;BME280;56128;37.534;-122.308;2023-04-15T08:57:28;101799.06;;;8.32;100.00
69058;BME280;56128;37.534;-122.308;2023-04-15T08:59:55;101811.31;;;8.36;100.00
69058;BME280;56128;37.534;-122.308;2023-04-15T09:02:24;101806.13;;;8.33;100.00
69058;BME280;56128;37.534;-122.308;2023-04-15T09:04:53;101808.66;;;8.36;100.00
69058;BME280;56128;37.534;-122.308;2023-04-15T09:07:19;101807.84;;;8.34;100.00
69058;BME280;56128;37.534;-122.308;2023-04-15T09:09:47;101806.91;;;8.35;100.00
69058;BME280;56128;37.534;-122.308;2023-04-15T09:12:14;101799.75;;;8.35;100.00
69058;BME280;56128;37.534;-122.308;2023-04-15T09:14:42;101809.59;;;8.35;100.00
69058;BME280;56128;37.534;-122.308;2023-04-15T09:17:09;101806.91;;;8.35;100.00
69058;BME280;56128;37.534;-122.308;2023-04-15T09:19:36;101796.38;;;8.32;100.00
69058;BME280;56128;37.534;-122.308;2023-04-15T09:22:03;101796.47;;;8.30;100.00
69058;BME280;56128;37.534;-122.308;2023-04-15T09:24:37;101806.28;;;8.29;100.00
69058;BME280;56128;37.534;-122.308;2023-04-15T09:27:05;101800.25;;;8.26;100.00
69058;BME280;56128;37.534;-122.308;2023-04-15T09:29:31;101798.19;;;8.31;100.00
69058;BME280;56128;37.534;-122.308;2023-04-15T09:32:14;101799.22;;;8.28;100.00
69058;BME280;56128;37.534;-122.308;2023-04-15T09:34:41;101810.75;;;8.29;100.00
69058;BME280;56128;37.534;-122.308;2023-04-15T09:37:07;101804.56;;;8.28;100.00
69058;BME280;56128;37.534;-122.308;2023-04-15T09:39:52;101798.44;;;8.26;100.00
69058;BME280;56128;37.534;-122.308;2023-04-15T09:42:19;101796.69;;;8.25;100.00
69058;BME280;56128;37.534;-122.308;2023-04-15T09:44:52;101805.63;;;8.24;100.00
69058;BME280;56128;37.534;-122.308;2023-04-15T09:49:55;101801.31;;;8.22;100.00
69058;BME280;56128;37.534;-122.308;2023-04-15T09:52:22;101792.63;;;8.18;100.00
69058;BME280;56128;37.534;-122.308;2023-04-15T09:54:52;101792.47;;;8.21;100.00
69058;BME280;56128;37.534;-122.308;2023-04-15T09:57:20;101792.47;;;8.21;100.00
69058;BME280;56128;37.534;-122.308;2023-04-15T09:59:48;101791.75;;;8.18;100.00
69058;BME280;56128;37.534;-122.308;2023-04-15T10:02:15;101800.47;;;8.21;100.00
69058;BME280;56128;37.534;-122.308;2023-04-15T10:04:43;101805.00;;;8.19;100.00
69058;BME280;56128;37.534;-122.308;2023-04-15T10:07:11;101805.00;;;8.19;100.00
69058;BME280;56128;37.534;-122.308;2023-04-15T10:09:38;101807.66;;;8.19;100.00
69058;BME280;56128;37.534;-122.308;2023-04-15T10:12:05;101805.00;;;8.19;100.00
69058;BME280;56128;37.534;-122.308;2023-04-15T10:14:34;101803.34;;;8.17;100.00
69058;BME280;56128;37.534;-122.308;2023-04-15T10:17:04;101801.66;;;8.16;100.00
69058;BME280;56128;37.534;-122.308;2023-04-15T10:19:33;101807.66;;;8.19;100.00
69058;BME280;56128;37.534;-122.308;2023-04-15T10:22:02;101803.28;;;8.18;100.00
69058;BME280;56128;37.534;-122.308;2023-04-15T10:24:30;101803.44;;;8.15;100.00
69058;BME280;56128;37.534;-122.308;2023-04-15T10:26:58;101806.88;;;8.17;100.00
69058;BME280;56128;37.534;-122.308;2023-04-15T10:29:25;101808.84;;;8.13;100.00
69058;BME280;56128;37.534;-122.308;2023-04-15T10:31:57;101815.81;;;8.16;100.00
69058;BME280;56128;37.534;-122.308;2023-04-15T10:34:24;101809.63;;;8.16;100.00
69058;BME280;56128;37.534;-122.308;2023-04-15T10:36:54;101799.03;;;8.14;100.00
69058;BME280;56128;37.534;-122.308;2023-04-15T10:44:32;101794.50;;;8.16;100.00
69058;BME280;56128;37.534;-122.308;2023-04-15T10:46:59;101803.59;;;8.12;100.00
69058;BME280;56128;37.534;-122.308;2023-04-15T10:49:25;101796.38;;;8.14;100.00
69058;BME280;56128;37.534;-122.308;2023-04-15T10:51:57;101796.38;;;8.14;100.00
69058;BME280;56128;37.534;-122.308;2023-04-15T10:56:52;101801.69;;;8.14;100.00
69058;BME280;56128;37.534;-122.308;2023-04-15T10:59:35;101799.66;;;8.19;100.00
69058;BME280;56128;37.534;-122.308;2023-04-15T11:02:06;101802.41;;;8.18;100.00
69058;BME280;56128;37.534;-122.308;2023-04-15T11:12:40;101811.34;;;8.17;100.00
69058;BME280;56128;37.534;-122.308;2023-04-15T11:17:56;101817.47;;;8.19;100.00
69058;BME280;56128;37.534;-122.308;2023-04-15T11:20:23;101826.56;;;8.15;100.00
69058;BME280;56128;37.534;-122.308;2023-04-15T11:22:51;101815.09;;;8.12;100.00
69058;BME280;56128;37.534;-122.308;2023-04-15T11:25:36;101831.66;;;8.19;100.00
69058;BME280;56128;37.534;-122.308;2023-04-15T11:28:03;101822.97;;;8.16;100.00
69058;BME280;56128;37.534;-122.308;2023-04-15T11:30:32;101826.31;;;8.19;100.00
69058;BME280;56128;37.534;-122.308;2023-04-15T11:33:04;101827.22;;;8.20;100.00
69058;BME280;56128;37.534;-122.308;2023-04-15T11:35:31;101819.59;;;8.12;100.00
69058;BME280;56128;37.534;-122.308;2023-04-15T11:38:04;101832.66;;;8.17;100.00
69058;BME280;56128;37.534;-122.308;2023-04-15T11:40:33;101833.56;;;8.17;100.00
69058;BME280;56128;37.534;-122.308;2023-04-15T11:43:10;101835.34;;;8.17;100.00
69058;BME280;56128;37.534;-122.308;2023-04-15T11:45:47;101833.47;;;8.19;100.00
69058;BME280;56128;37.534;-122.308;2023-04-15T11:48:14;101842.28;;;8.21;100.00
69058;BME280;56128;37.534;-122.308;2023-04-15T11:50:40;101845.94;;;8.18;100.00
69058;BME280;56128;37.534;-122.308;2023-04-15T11:53:09;101845.06;;;8.18;100.00
69058;BME280;56128;37.534;-122.308;2023-04-15T11:55:47;101845.22;;;8.15;100.00
69058;BME280;56128;37.534;-122.308;2023-04-15T11:58:17;101832.03;;;8.11;100.00
69058;BME280;56128;37.534;-122.308;2023-04-15T12:00:56;101833.69;;;8.14;100.00
69058;BME280;56128;37.534;-122.308;2023-04-15T12:03:27;101842.50;;;8.16;100.00
69058;BME280;56128;37.534;-122.308;2023-04-15T12:08:54;101837.16;;;8.16;100.00
69058;BME280;56128;37.534;-122.308;2023-04-15T12:11:40;101846.88;;;8.17;100.00
69058;BME280;56128;37.534;-122.308;2023-04-15T12:16:55;101841.69;;;8.14;100.00
69058;BME280;56128;37.534;-122.308;2023-04-15T12:19:36;101843.72;;;8.09;100.00
69058;BME280;56128;37.534;-122.308;2023-04-15T12:24:37;101834.78;;;8.10;100.00
69058;BME280;56128;37.534;-122.308;2023-04-15T12:27:09;101841.84;;;8.11;100.00
69058;BME280;56128;37.534;-122.308;2023-04-15T12:29:37;101845.44;;;8.10;100.00
69058;BME280;56128;37.534;-122.308;2023-04-15T12:34:48;101849.97;;;8.08;100.00
69058;BME280;56128;37.534;-122.308;2023-04-15T12:37:15;101847.41;;;8.06;100.00
69058;BME280;56128;37.534;-122.308;2023-04-15T12:39:43;101853.59;;;8.07;100.00
69058;BME280;56128;37.534;-122.308;2023-04-15T12:42:11;101851.00;;;8.05;100.00
69058;BME280;56128;37.534;-122.308;2023-04-15T12:44:38;101851.16;;;8.02;100.00
69058;BME280;56128;37.534;-122.308;2023-04-15T12:47:05;101853.81;;;8.02;100.00
69058;BME280;56128;37.534;-122.308;2023-04-15T12:49:31;101852.09;;;8.01;100.00
69058;BME280;56128;37.534;-122.308;2023-04-15T12:51:59;101857.34;;;8.03;100.00
69058;BME280;56128;37.534;-122.308;2023-04-15T12:54:27;101855.69;;;8.00;100.00